sensor_id;sensor_type;location;lat;lon;timestamp;temperature;humidity
40534;DHT22;26233;51.894;10.192;2023-07-24T00:00:47;21.10;47.00
40534;DHT22;26233;51.894;10.192;2023-07-24T00:03:16;21.20;47.20
40534;DHT22;26233;51.894;10.192;2023-07-24T00:05:43;21.20;47.20
40534;DHT22;26233;51.894;10.192;2023-07-24T00:08:10;21.20;47.30
40534;DHT22;26233;51.894;10.192;2023-07-24T00:10:37;21.20;47.80
40534;DHT22;26233;51.894;10.192;2023-07-24T00:13:04;21.20;47.50
40534;DHT22;26233;51.894;10.192;2023-07-24T00:15:31;21.20;47.30
40534;DHT22;26233;51.894;10.192;2023-07-24T00:17:58;21.20;47.30
40534;DHT22;26233;51.894;10.192;2023-07-24T00:20:26;21.20;47.30
40534;DHT22;26233;51.894;10.192;2023-07-24T00:22:54;21.20;47.50
40534;DHT22;26233;51.894;10.192;2023-07-24T00:25:23;21.20;47.40
40534;DHT22;26233;51.894;10.192;2023-07-24T00:27:50;21.20;48.10
40534;DHT22;26233;51.894;10.192;2023-07-24T00:30:17;21.20;47.50
40534;DHT22;26233;51.894;10.192;2023-07-24T00:32:44;21.20;47.60
40534;DHT22;26233;51.894;10.192;2023-07-24T00:35:11;21.20;47.70
40534;DHT22;26233;51.894;10.192;2023-07-24T00:37:40;21.20;47.60
40534;DHT22;26233;51.894;10.192;2023-07-24T00:40:08;21.20;47.70
40534;DHT22;26233;51.894;10.192;2023-07-24T00:42:35;21.20;47.70
40534;DHT22;26233;51.894;10.192;2023-07-24T00:45:02;21.20;47.80
40534;DHT22;26233;51.894;10.192;2023-07-24T00:47:30;21.20;47.90
40534;DHT22;26233;51.894;10.192;2023-07-24T00:49:57;21.20;47.80
40534;DHT22;26233;51.894;10.192;2023-07-24T00:52:26;21.20;47.80
40534;DHT22;26233;51.894;10.192;2023-07-24T00:54:54;21.20;47.90
40534;DHT22;26233;51.894;10.192;2023-07-24T00:57:23;21.20;47.90
40534;DHT22;26233;51.894;10.192;2023-07-24T00:59:50;21.30;48.00
40534;DHT22;26233;51.894;10.192;2023-07-24T01:02:17;21.30;48.00
40534;DHT22;26233;51.894;10.192;2023-07-24T01:04:46;21.30;48.00
40534;DHT22;26233;51.894;10.192;2023-07-24T01:07:13;21.30;48.10
40534;DHT22;26233;51.894;10.192;2023-07-24T01:09:42;21.30;48.00
40534;DHT22;26233;51.894;10.192;2023-07-24T01:12:16;21.20;48.00
40534;DHT22;26233;51.894;10.192;2023-07-24T01:14:49;21.20;48.20
40534;DHT22;26233;51.894;10.192;2023-07-24T01:17:23;21.20;48.00
40534;DHT22;26233;51.894;10.192;2023-07-24T01:19:55;21.20;48.20
40534;DHT22;26233;51.894;10.192;2023-07-24T01:22:32;21.20;48.10
40534;DHT22;26233;51.894;10.192;2023-07-24T01:25:10;21.20;48.30
40534;DHT22;26233;51.894;10.192;2023-07-24T01:27:44;21.20;48.20
40534;DHT22;26233;51.894;10.192;2023-07-24T01:30:12;21.20;48.20
40534;DHT22;26233;51.894;10.192;2023-07-24T01:32:44;21.10;48.10
40534;DHT22;26233;51.894;10.192;2023-07-24T01:35:11;21.10;48.10
40534;DHT22;26233;51.894;10.192;2023-07-24T01:37:42;21.10;48.20
40534;DHT22;26233;51.894;10.192;2023-07-24T01:40:10;21.10;48.30
40534;DHT22;26233;51.894;10.192;2023-07-24T01:42:38;21.10;48.30
40534;DHT22;26233;51.894;10.192;2023-07-24T01:45:08;21.10;48.30
40534;DHT22;26233;51.894;10.192;2023-07-24T01:47:37;21.10;48.40
40534;DHT22;26233;51.894;10.192;2023-07-24T01:50:04;21.10;48.40
40534;DHT22;26233;51.894;10.192;2023-07-24T01:52:32;21.10;48.50
40534;DHT22;26233;51.894;10.192;2023-07-24T01:54:59;21.10;48.40
40534;DHT22;26233;51.894;10.192;2023-07-24T01:57:26;21.10;48.40
40534;DHT22;26233;51.894;10.192;2023-07-24T01:59:54;21.00;48.30
40534;DHT22;26233;51.894;10.192;2023-07-24T02:02:22;21.10;48.50
40534;DHT22;26233;51.894;10.192;2023-07-24T02:04:49;21.00;48.40
40534;DHT22;26233;51.894;10.192;2023-07-24T02:07:16;21.00;48.50
40534;DHT22;26233;51.894;10.192;2023-07-24T02:09:44;21.00;48.50
40534;DHT22;26233;51.894;10.192;2023-07-24T02:12:11;21.00;48.60
40534;DHT22;26233;51.894;10.192;2023-07-24T02:14:38;21.00;48.60
40534;DHT22;26233;51.894;10.192;2023-07-24T02:17:05;21.00;48.60
40534;DHT22;26233;51.894;10.192;2023-07-24T02:19:34;21.00;48.80
40534;DHT22;26233;51.894;10.192;2023-07-24T02:22:01;21.00;48.70
40534;DHT22;26233;51.894;10.192;2023-07-24T02:24:28;20.90;48.70
40534;DHT22;26233;51.894;10.192;2023-07-24T02:26:55;20.90;48.70
40534;DHT22;26233;51.894;10.192;2023-07-24T02:29:22;21.00;48.80
40534;DHT22;26233;51.894;10.192;2023-07-24T02:31:50;21.00;48.90
40534;DHT22;26233;51.894;10.192;2023-07-24T02:34:17;21.00;48.90
40534;DHT22;26233;51.894;10.192;2023-07-24T02:36:46;21.00;48.90
40534;DHT22;26233;51.894;10.192;2023-07-24T02:39:13;21.00;48.90
40534;DHT22;26233;51.894;10.192;2023-07-24T02:41:40;21.00;48.80
40534;DHT22;26233;51.894;10.192;2023-07-24T02:44:07;21.00;48.90
40534;DHT22;26233;51.894;10.192;2023-07-24T02:46:34;21.00;48.90
40534;DHT22;26233;51.894;10.192;2023-07-24T02:49:01;21.00;48.90
40534;DHT22;26233;51.894;10.192;2023-07-24T02:51:28;21.00;48.90
40534;DHT22;26233;51.894;10.192;2023-07-24T02:53:57;21.00;48.90
40534;DHT22;26233;51.894;10.192;2023-07-24T02:56:24;21.00;48.90
40534;DHT22;26233;51.894;10.192;2023-07-24T02:58:51;21.00;48.90
40534;DHT22;26233;51.894;10.192;2023-07-24T03:01:18;21.00;48.90
40534;DHT22;26233;51.894;10.192;2023-07-24T03:03:45;21.00;48.90
40534;DHT22;26233;51.894;10.192;2023-07-24T03:06:12;21.00;48.90
40534;DHT22;26233;51.894;10.192;2023-07-24T03:08:39;21.00;48.90
40534;DHT22;26233;51.894;10.192;2023-07-24T03:11:07;21.00;48.90
40534;DHT22;26233;51.894;10.192;2023-07-24T03:13:34;21.00;48.90
40534;DHT22;26233;51.894;10.192;2023-07-24T03:16:01;20.90;48.80
40534;DHT22;26233;51.894;10.192;2023-07-24T03:18:29;20.90;48.80
40534;DHT22;26233;51.894;10.192;2023-07-24T03:20:57;20.90;48.90
40534;DHT22;26233;51.894;10.192;2023-07-24T03:23:25;20.90;49.00
40534;DHT22;26233;51.894;10.192;2023-07-24T03:25:52;20.80;48.80
40534;DHT22;26233;51.894;10.192;2023-07-24T03:28:20;20.80;48.90
40534;DHT22;26233;51.894;10.192;2023-07-24T03:30:47;20.80;49.00
40534;DHT22;26233;51.894;10.192;2023-07-24T03:33:17;20.80;49.10
40534;DHT22;26233;51.894;10.192;2023-07-24T03:35:44;20.80;49.20
40534;DHT22;26233;51.894;10.192;2023-07-24T03:38:11;20.70;49.10
40534;DHT22;26233;51.894;10.192;2023-07-24T03:40:38;20.70;49.10
40534;DHT22;26233;51.894;10.192;2023-07-24T03:43:05;20.70;49.20
40534;DHT22;26233;51.894;10.192;2023-07-24T03:45:34;20.70;49.30
40534;DHT22;26233;51.894;10.192;2023-07-24T03:48:01;20.70;49.30
40534;DHT22;26233;51.894;10.192;2023-07-24T03:50:29;20.70;49.30
40534;DHT22;26233;51.894;10.192;2023-07-24T03:52:56;20.70;49.30
40534;DHT22;26233;51.894;10.192;2023-07-24T03:55:23;20.70;49.30
40534;DHT22;26233;51.894;10.192;2023-07-24T03:57:50;20.70;49.40
40534;DHT22;26233;51.894;10.192;2023-07-24T04:00:17;20.70;49.40
40534;DHT22;26233;51.894;10.192;2023-07-24T04:02:46;20.70;49.30
40534;DHT22;26233;51.894;10.192;2023-07-24T04:05:14;20.70;49.40
40534;DHT22;26233;51.894;10.192;2023-07-24T04:07:41;20.70;49.40
40534;DHT22;26233;51.894;10.192;2023-07-24T04:10:08;20.70;49.40
40534;DHT22;26233;51.894;10.192;2023-07-24T04:12:35;20.70;49.40
40534;DHT22;26233;51.894;10.192;2023-07-24T04:15:03;20.70;49.40
40534;DHT22;26233;51.894;10.192;2023-07-24T04:17:31;20.70;49.40
40534;DHT22;26233;51.894;10.192;2023-07-24T04:19:59;20.70;49.50
40534;DHT22;26233;51.894;10.192;2023-07-24T04:22:26;20.70;49.50
40534;DHT22;26233;51.894;10.192;2023-07-24T04:24:53;20.70;49.50
40534;DHT22;26233;51.894;10.192;2023-07-24T04:27:22;20.70;49.60
40534;DHT22;26233;51.894;10.192;2023-07-24T04:29:49;20.70;49.60
40534;DHT22;26233;51.894;10.192;2023-07-24T04:32:16;20.70;49.60
40534;DHT22;26233;51.894;10.192;2023-07-24T04:34:43;20.80;49.70
40534;DHT22;26233;51.894;10.192;2023-07-24T04:37:12;20.80;49.70
40534;DHT22;26233;51.894;10.192;2023-07-24T04:39:41;20.80;49.70
40534;DHT22;26233;51.894;10.192;2023-07-24T04:42:09;20.80;49.60
40534;DHT22;26233;51.894;10.192;2023-07-24T04:44:36;20.80;49.70
40534;DHT22;26233;51.894;10.192;2023-07-24T04:47:03;20.80;49.60
40534;DHT22;26233;51.894;10.192;2023-07-24T04:49:30;20.80;49.60
40534;DHT22;26233;51.894;10.192;2023-07-24T04:51:58;20.90;49.70
40534;DHT22;26233;51.894;10.192;2023-07-24T04:54:26;20.90;49.70
40534;DHT22;26233;51.894;10.192;2023-07-24T04:56:54;20.90;49.80
40534;DHT22;26233;51.894;10.192;2023-07-24T04:59:22;20.90;49.70
40534;DHT22;26233;51.894;10.192;2023-07-24T05:01:49;21.00;49.90
40534;DHT22;26233;51.894;10.192;2023-07-24T05:04:16;21.00;49.90
40534;DHT22;26233;51.894;10.192;2023-07-24T05:06:43;21.00;49.90
40534;DHT22;26233;51.894;10.192;2023-07-24T05:09:10;21.10;50.10
40534;DHT22;26233;51.894;10.192;2023-07-24T05:11:38;21.20;50.20
40534;DHT22;26233;51.894;10.192;2023-07-24T05:14:06;21.20;50.10
40534;DHT22;26233;51.894;10.192;2023-07-24T05:16:33;21.30;50.10
40534;DHT22;26233;51.894;10.192;2023-07-24T05:19:00;21.40;50.10
40534;DHT22;26233;51.894;10.192;2023-07-24T05:21:27;21.40;50.00
40534;DHT22;26233;51.894;10.192;2023-07-24T05:23:54;21.50;49.90
40534;DHT22;26233;51.894;10.192;2023-07-24T05:26:21;21.50;49.90
40534;DHT22;26233;51.894;10.192;2023-07-24T05:28:49;21.60;50.00
40534;DHT22;26233;51.894;10.192;2023-07-24T05:31:18;21.60;49.90
40534;DHT22;26233;51.894;10.192;2023-07-24T05:33:45;21.70;49.90
40534;DHT22;26233;51.894;10.192;2023-07-24T05:36:12;21.70;49.90
40534;DHT22;26233;51.894;10.192;2023-07-24T05:38:39;21.70;49.70
40534;DHT22;26233;51.894;10.192;2023-07-24T05:41:06;21.80;49.80
40534;DHT22;26233;51.894;10.192;2023-07-24T05:43:33;21.80;49.70
40534;DHT22;26233;51.894;10.192;2023-07-24T05:46:02;21.90;49.70
40534;DHT22;26233;51.894;10.192;2023-07-24T05:48:29;21.90;49.70
40534;DHT22;26233;51.894;10.192;2023-07-24T05:50:56;21.90;49.70
40534;DHT22;26233;51.894;10.192;2023-07-24T05:53:23;22.00;49.90
40534;DHT22;26233;51.894;10.192;2023-07-24T05:55:57;22.00;49.80
40534;DHT22;26233;51.894;10.192;2023-07-24T05:58:25;22.10;49.80
40534;DHT22;26233;51.894;10.192;2023-07-24T06:00:52;22.20;49.80
40534;DHT22;26233;51.894;10.192;2023-07-24T06:03:21;22.20;50.30
40534;DHT22;26233;51.894;10.192;2023-07-24T06:05:51;22.20;49.50
40534;DHT22;26233;51.894;10.192;2023-07-24T06:08:19;22.20;49.40
40534;DHT22;26233;51.894;10.192;2023-07-24T06:10:47;22.30;49.50
40534;DHT22;26233;51.894;10.192;2023-07-24T06:13:14;22.30;49.50
40534;DHT22;26233;51.894;10.192;2023-07-24T06:15:41;22.30;49.50
40534;DHT22;26233;51.894;10.192;2023-07-24T06:18:09;22.40;49.70
40534;DHT22;26233;51.894;10.192;2023-07-24T06:20:37;22.40;49.70
40534;DHT22;26233;51.894;10.192;2023-07-24T06:23:05;22.50;49.80
40534;DHT22;26233;51.894;10.192;2023-07-24T06:25:32;22.60;49.70
40534;DHT22;26233;51.894;10.192;2023-07-24T06:27:59;22.60;49.30
40534;DHT22;26233;51.894;10.192;2023-07-24T06:30:27;22.70;49.40
40534;DHT22;26233;51.894;10.192;2023-07-24T06:32:54;22.70;49.40
40534;DHT22;26233;51.894;10.192;2023-07-24T06:35:21;22.70;49.30
40534;DHT22;26233;51.894;10.192;2023-07-24T06:37:49;22.80;49.40
40534;DHT22;26233;51.894;10.192;2023-07-24T06:40:16;22.80;49.30
40534;DHT22;26233;51.894;10.192;2023-07-24T06:42:44;22.90;49.50
40534;DHT22;26233;51.894;10.192;2023-07-24T06:45:12;23.00;49.60
40534;DHT22;26233;51.894;10.192;2023-07-24T06:47:39;23.10;49.80
40534;DHT22;26233;51.894;10.192;2023-07-24T06:50:07;23.30;49.80
40534;DHT22;26233;51.894;10.192;2023-07-24T06:52:34;23.40;49.70
40534;DHT22;26233;51.894;10.192;2023-07-24T06:55:03;23.50;49.60
40534;DHT22;26233;51.894;10.192;2023-07-24T06:57:31;23.70;49.60
40534;DHT22;26233;51.894;10.192;2023-07-24T06:59:58;23.80;49.50
40534;DHT22;26233;51.894;10.192;2023-07-24T07:02:25;23.90;49.40
40534;DHT22;26233;51.894;10.192;2023-07-24T07:04:53;24.10;49.50
40534;DHT22;26233;51.894;10.192;2023-07-24T07:07:20;24.30;50.10
40534;DHT22;26233;51.894;10.192;2023-07-24T07:09:48;24.40;49.50
40534;DHT22;26233;51.894;10.192;2023-07-24T07:12:16;24.50;49.20
40534;DHT22;26233;51.894;10.192;2023-07-24T07:14:43;24.60;48.90
40534;DHT22;26233;51.894;10.192;2023-07-24T07:17:10;24.70;48.80
40534;DHT22;26233;51.894;10.192;2023-07-24T07:19:37;24.70;49.30
40534;DHT22;26233;51.894;10.192;2023-07-24T07:22:04;24.70;48.70
40534;DHT22;26233;51.894;10.192;2023-07-24T07:24:32;24.90;49.10
40534;DHT22;26233;51.894;10.192;2023-07-24T07:26:59;25.10;49.30
40534;DHT22;26233;51.894;10.192;2023-07-24T07:29:27;25.40;49.50
40534;DHT22;26233;51.894;10.192;2023-07-24T07:31:54;25.60;50.00
40534;DHT22;26233;51.894;10.192;2023-07-24T07:34:21;26.00;50.50
40534;DHT22;26233;51.894;10.192;2023-07-24T07:36:51;26.40;50.50
40534;DHT22;26233;51.894;10.192;2023-07-24T07:39:18;26.90;50.30
40534;DHT22;26233;51.894;10.192;2023-07-24T07:41:45;27.40;50.10
40534;DHT22;26233;51.894;10.192;2023-07-24T07:44:12;27.90;49.50
40534;DHT22;26233;51.894;10.192;2023-07-24T07:46:41;28.40;49.90
40534;DHT22;26233;51.894;10.192;2023-07-24T07:49:08;28.90;48.90
40534;DHT22;26233;51.894;10.192;2023-07-24T07:51:35;29.30;48.30
40534;DHT22;26233;51.894;10.192;2023-07-24T07:54:02;29.80;47.30
40534;DHT22;26233;51.894;10.192;2023-07-24T07:56:29;30.20;47.10
40534;DHT22;26233;51.894;10.192;2023-07-24T07:58:56;30.50;46.20
40534;DHT22;26233;51.894;10.192;2023-07-24T08:01:23;30.90;46.00
40534;DHT22;26233;51.894;10.192;2023-07-24T08:03:52;31.40;45.80
40534;DHT22;26233;51.894;10.192;2023-07-24T08:06:19;31.70;44.80
40534;DHT22;26233;51.894;10.192;2023-07-24T08:08:46;32.00;44.00
40534;DHT22;26233;51.894;10.192;2023-07-24T08:11:13;32.20;43.20
40534;DHT22;26233;51.894;10.192;2023-07-24T08:13:41;32.30;42.60
40534;DHT22;26233;51.894;10.192;2023-07-24T08:16:13;32.40;42.20
40534;DHT22;26233;51.894;10.192;2023-07-24T08:18:44;32.40;41.30
40534;DHT22;26233;51.894;10.192;2023-07-24T08:21:12;32.40;41.40
40534;DHT22;26233;51.894;10.192;2023-07-24T08:23:40;32.50;41.10
40534;DHT22;26233;51.894;10.192;2023-07-24T08:26:07;32.60;41.50
40534;DHT22;26233;51.894;10.192;2023-07-24T08:28:34;32.70;41.30
40534;DHT22;26233;51.894;10.192;2023-07-24T08:31:02;32.80;41.00
40534;DHT22;26233;51.894;10.192;2023-07-24T08:33:29;32.80;40.00
40534;DHT22;26233;51.894;10.192;2023-07-24T08:36:03;32.70;39.40
40534;DHT22;26233;51.894;10.192;2023-07-24T08:38:33;32.60;38.60
40534;DHT22;26233;51.894;10.192;2023-07-24T08:41:04;32.30;37.90
40534;DHT22;26233;51.894;10.192;2023-07-24T08:43:33;31.90;37.50
40534;DHT22;26233;51.894;10.192;2023-07-24T08:46:01;31.70;37.70
40534;DHT22;26233;51.894;10.192;2023-07-24T08:48:31;31.40;38.00
40534;DHT22;26233;51.894;10.192;2023-07-24T08:51:01;31.10;37.80
40534;DHT22;26233;51.894;10.192;2023-07-24T08:53:30;30.80;37.60
40534;DHT22;26233;51.894;10.192;2023-07-24T08:55:59;30.40;37.50
40534;DHT22;26233;51.894;10.192;2023-07-24T08:58:27;29.90;37.20
40534;DHT22;26233;51.894;10.192;2023-07-24T09:00:54;29.50;37.40
40534;DHT22;26233;51.894;10.192;2023-07-24T09:03:22;28.90;37.70
40534;DHT22;26233;51.894;10.192;2023-07-24T09:05:50;28.40;38.00
40534;DHT22;26233;51.894;10.192;2023-07-24T09:08:17;28.00;38.80
40534;DHT22;26233;51.894;10.192;2023-07-24T09:10:55;27.60;39.50
40534;DHT22;26233;51.894;10.192;2023-07-24T09:13:23;27.30;40.00
40534;DHT22;26233;51.894;10.192;2023-07-24T09:15:50;27.10;40.50
40534;DHT22;26233;51.894;10.192;2023-07-24T09:18:17;27.10;41.20
40534;DHT22;26233;51.894;10.192;2023-07-24T09:20:45;27.10;41.70
40534;DHT22;26233;51.894;10.192;2023-07-24T09:23:13;27.20;42.00
40534;DHT22;26233;51.894;10.192;2023-07-24T09:25:42;27.40;41.70
40534;DHT22;26233;51.894;10.192;2023-07-24T09:28:10;27.50;41.70
40534;DHT22;26233;51.894;10.192;2023-07-24T09:30:39;27.70;41.50
40534;DHT22;26233;51.894;10.192;2023-07-24T09:33:07;27.80;41.40
40534;DHT22;26233;51.894;10.192;2023-07-24T09:35:34;28.00;41.40
40534;DHT22;26233;51.894;10.192;2023-07-24T09:38:03;28.10;41.20
40534;DHT22;26233;51.894;10.192;2023-07-24T09:40:41;28.20;41.20
40534;DHT22;26233;51.894;10.192;2023-07-24T09:43:19;28.30;40.90
40534;DHT22;26233;51.894;10.192;2023-07-24T09:45:50;28.40;40.80
40534;DHT22;26233;51.894;10.192;2023-07-24T09:48:19;28.50;40.80
40534;DHT22;26233;51.894;10.192;2023-07-24T09:50:51;28.60;41.00
40534;DHT22;26233;51.894;10.192;2023-07-24T09:53:22;28.70;41.00
40534;DHT22;26233;51.894;10.192;2023-07-24T09:55:56;28.90;41.40
40534;DHT22;26233;51.894;10.192;2023-07-24T09:58:25;29.10;41.70
40534;DHT22;26233;51.894;10.192;2023-07-24T10:00:53;29.40;41.70
40534;DHT22;26233;51.894;10.192;2023-07-24T10:03:22;29.80;41.70
40534;DHT22;26233;51.894;10.192;2023-07-24T10:05:49;30.20;41.90
40534;DHT22;26233;51.894;10.192;2023-07-24T10:08:18;30.50;41.60
40534;DHT22;26233;51.894;10.192;2023-07-24T10:10:45;30.90;41.50
40534;DHT22;26233;51.894;10.192;2023-07-24T10:13:16;31.20;41.00
40534;DHT22;26233;51.894;10.192;2023-07-24T10:15:44;31.60;40.50
40534;DHT22;26233;51.894;10.192;2023-07-24T10:18:16;31.80;40.00
40534;DHT22;26233;51.894;10.192;2023-07-24T10:20:44;31.90;39.20
40534;DHT22;26233;51.894;10.192;2023-07-24T10:23:16;32.00;39.10
40534;DHT22;26233;51.894;10.192;2023-07-24T10:25:45;32.00;38.80
40534;DHT22;26233;51.894;10.192;2023-07-24T10:28:13;32.10;39.10
40534;DHT22;26233;51.894;10.192;2023-07-24T10:30:42;32.30;39.10
40534;DHT22;26233;51.894;10.192;2023-07-24T10:33:10;32.40;38.90
40534;DHT22;26233;51.894;10.192;2023-07-24T10:35:44;32.60;38.80
40534;DHT22;26233;51.894;10.192;2023-07-24T10:38:14;32.80;38.50
40534;DHT22;26233;51.894;10.192;2023-07-24T10:40:44;33.10;38.70
40534;DHT22;26233;51.894;10.192;2023-07-24T10:43:13;33.30;38.80
40534;DHT22;26233;51.894;10.192;2023-07-24T10:45:48;33.60;38.50
40534;DHT22;26233;51.894;10.192;2023-07-24T10:48:16;33.70;37.40
40534;DHT22;26233;51.894;10.192;2023-07-24T10:50:47;33.80;36.80
40534;DHT22;26233;51.894;10.192;2023-07-24T10:53:16;33.80;36.50
40534;DHT22;26233;51.894;10.192;2023-07-24T10:55:44;33.90;36.50
40534;DHT22;26233;51.894;10.192;2023-07-24T10:58:13;34.10;36.50
40534;DHT22;26233;51.894;10.192;2023-07-24T11:00:41;34.20;36.30
40534;DHT22;26233;51.894;10.192;2023-07-24T11:03:09;34.30;36.10
40534;DHT22;26233;51.894;10.192;2023-07-24T11:05:39;34.40;35.20
40534;DHT22;26233;51.894;10.192;2023-07-24T11:08:13;34.30;34.00
40534;DHT22;26233;51.894;10.192;2023-07-24T11:10:44;34.10;33.20
40534;DHT22;26233;51.894;10.192;2023-07-24T11:13:13;33.80;33.50
40534;DHT22;26233;51.894;10.192;2023-07-24T11:15:40;33.60;33.60
40534;DHT22;26233;51.894;10.192;2023-07-24T11:18:07;33.30;33.30
40534;DHT22;26233;51.894;10.192;2023-07-24T11:20:37;33.10;33.10
40534;DHT22;26233;51.894;10.192;2023-07-24T11:23:04;32.70;32.90
40534;DHT22;26233;51.894;10.192;2023-07-24T11:25:33;32.40;33.10
40534;DHT22;26233;51.894;10.192;2023-07-24T11:28:00;32.10;33.10
40534;DHT22;26233;51.894;10.192;2023-07-24T11:30:30;31.80;33.10
40534;DHT22;26233;51.894;10.192;2023-07-24T11:32:57;31.50;32.90
40534;DHT22;26233;51.894;10.192;2023-07-24T11:35:27;31.10;32.80
40534;DHT22;26233;51.894;10.192;2023-07-24T11:37:57;30.80;32.80
40534;DHT22;26233;51.894;10.192;2023-07-24T11:40:32;30.40;32.90
40534;DHT22;26233;51.894;10.192;2023-07-24T11:43:02;30.00;32.90
40534;DHT22;26233;51.894;10.192;2023-07-24T11:45:30;29.70;33.20
40534;DHT22;26233;51.894;10.192;2023-07-24T11:47:57;29.40;33.40
40534;DHT22;26233;51.894;10.192;2023-07-24T11:50:24;29.10;33.60
40534;DHT22;26233;51.894;10.192;2023-07-24T11:52:52;28.90;33.90
40534;DHT22;26233;51.894;10.192;2023-07-24T11:55:30;28.70;34.20
40534;DHT22;26233;51.894;10.192;2023-07-24T11:58:01;28.60;34.60
40534;DHT22;26233;51.894;10.192;2023-07-24T12:00:32;28.60;35.10
40534;DHT22;26233;51.894;10.192;2023-07-24T12:03:00;28.70;35.60
40534;DHT22;26233;51.894;10.192;2023-07-24T12:05:29;28.80;36.10
40534;DHT22;26233;51.894;10.192;2023-07-24T12:07:56;29.00;36.30
40534;DHT22;26233;51.894;10.192;2023-07-24T12:10:27;29.30;36.20
40534;DHT22;26233;51.894;10.192;2023-07-24T12:12:59;29.50;36.00
40534;DHT22;26233;51.894;10.192;2023-07-24T12:15:26;29.70;35.60
40534;DHT22;26233;51.894;10.192;2023-07-24T12:17:53;29.90;35.60
40534;DHT22;26233;51.894;10.192;2023-07-24T12:20:20;30.10;35.50
40534;DHT22;26233;51.894;10.192;2023-07-24T12:22:47;30.40;35.70
40534;DHT22;26233;51.894;10.192;2023-07-24T12:25:14;30.50;35.20
40534;DHT22;26233;51.894;10.192;2023-07-24T12:27:42;30.80;35.00
40534;DHT22;26233;51.894;10.192;2023-07-24T12:30:10;30.90;34.80
40534;DHT22;26233;51.894;10.192;2023-07-24T12:32:37;31.00;34.10
40534;DHT22;26233;51.894;10.192;2023-07-24T12:35:05;31.00;33.70
40534;DHT22;26233;51.894;10.192;2023-07-24T12:37:33;31.00;33.40
40534;DHT22;26233;51.894;10.192;2023-07-24T12:40:00;31.00;33.10
40534;DHT22;26233;51.894;10.192;2023-07-24T12:42:27;30.80;32.80
40534;DHT22;26233;51.894;10.192;2023-07-24T12:44:54;30.80;32.70
40534;DHT22;26233;51.894;10.192;2023-07-24T12:47:23;30.60;32.60
40534;DHT22;26233;51.894;10.192;2023-07-24T12:49:51;30.40;32.50
40534;DHT22;26233;51.894;10.192;2023-07-24T12:52:21;30.30;32.70
40534;DHT22;26233;51.894;10.192;2023-07-24T12:54:48;30.20;32.90
40534;DHT22;26233;51.894;10.192;2023-07-24T12:57:15;30.20;33.00
40534;DHT22;26233;51.894;10.192;2023-07-24T12:59:42;30.10;32.90
40534;DHT22;26233;51.894;10.192;2023-07-24T13:02:09;30.00;32.80
40534;DHT22;26233;51.894;10.192;2023-07-24T13:04:38;29.90;32.90
40534;DHT22;26233;51.894;10.192;2023-07-24T13:07:05;29.90;32.90
40534;DHT22;26233;51.894;10.192;2023-07-24T13:09:32;29.90;32.90
40534;DHT22;26233;51.894;10.192;2023-07-24T13:11:59;29.70;32.80
40534;DHT22;26233;51.894;10.192;2023-07-24T13:14:26;29.70;32.80
40534;DHT22;26233;51.894;10.192;2023-07-24T13:16:53;29.60;32.80
40534;DHT22;26233;51.894;10.192;2023-07-24T13:19:20;29.50;32.80
40534;DHT22;26233;51.894;10.192;2023-07-24T13:21:49;29.50;32.90
40534;DHT22;26233;51.894;10.192;2023-07-24T13:24:16;29.40;32.80
40534;DHT22;26233;51.894;10.192;2023-07-24T13:26:43;29.30;32.60
40534;DHT22;26233;51.894;10.192;2023-07-24T13:29:10;29.20;32.70
40534;DHT22;26233;51.894;10.192;2023-07-24T13:31:37;29.10;32.70
40534;DHT22;26233;51.894;10.192;2023-07-24T13:34:06;29.00;32.70
40534;DHT22;26233;51.894;10.192;2023-07-24T13:36:33;28.80;32.70
40534;DHT22;26233;51.894;10.192;2023-07-24T13:39:02;28.80;33.10
40534;DHT22;26233;51.894;10.192;2023-07-24T13:41:29;28.80;33.60
40534;DHT22;26233;51.894;10.192;2023-07-24T13:43:57;28.90;34.00
40534;DHT22;26233;51.894;10.192;2023-07-24T13:46:25;29.00;34.00
40534;DHT22;26233;51.894;10.192;2023-07-24T13:48:52;29.20;34.20
40534;DHT22;26233;51.894;10.192;2023-07-24T13:51:19;29.30;34.40
40534;DHT22;26233;51.894;10.192;2023-07-24T13:53:46;29.40;34.20
40534;DHT22;26233;51.894;10.192;2023-07-24T13:56:16;29.60;34.20
40534;DHT22;26233;51.894;10.192;2023-07-24T13:58:43;29.70;34.20
40534;DHT22;26233;51.894;10.192;2023-07-24T14:01:10;29.90;34.20
40534;DHT22;26233;51.894;10.192;2023-07-24T14:03:37;30.00;34.20
40534;DHT22;26233;51.894;10.192;2023-07-24T14:06:04;30.10;34.10
40534;DHT22;26233;51.894;10.192;2023-07-24T14:08:32;30.30;34.40
40534;DHT22;26233;51.894;10.192;2023-07-24T14:10:59;30.50;34.20
40534;DHT22;26233;51.894;10.192;2023-07-24T14:13:27;30.70;34.00
40534;DHT22;26233;51.894;10.192;2023-07-24T14:15:54;30.80;33.60
40534;DHT22;26233;51.894;10.192;2023-07-24T14:18:21;30.80;33.40
40534;DHT22;26233;51.894;10.192;2023-07-24T14:20:48;30.90;33.40
40534;DHT22;26233;51.894;10.192;2023-07-24T14:23:17;31.00;33.40
40534;DHT22;26233;51.894;10.192;2023-07-24T14:25:44;31.00;33.20
40534;DHT22;26233;51.894;10.192;2023-07-24T14:28:12;31.10;33.30
40534;DHT22;26233;51.894;10.192;2023-07-24T14:30:40;31.10;33.80
40534;DHT22;26233;51.894;10.192;2023-07-24T14:33:07;31.10;32.80
40534;DHT22;26233;51.894;10.192;2023-07-24T14:35:34;31.10;32.70
40534;DHT22;26233;51.894;10.192;2023-07-24T14:38:02;30.90;32.50
40534;DHT22;26233;51.894;10.192;2023-07-24T14:40:29;30.80;32.40
40534;DHT22;26233;51.894;10.192;2023-07-24T14:42:56;30.70;32.30
40534;DHT22;26233;51.894;10.192;2023-07-24T14:45:23;30.50;32.20
40534;DHT22;26233;51.894;10.192;2023-07-24T14:47:51;30.30;32.10
40534;DHT22;26233;51.894;10.192;2023-07-24T14:50:18;30.10;32.30
40534;DHT22;26233;51.894;10.192;2023-07-24T14:52:45;29.90;32.50
40534;DHT22;26233;51.894;10.192;2023-07-24T14:55:14;29.70;32.50
40534;DHT22;26233;51.894;10.192;2023-07-24T14:57:42;29.50;32.60
40534;DHT22;26233;51.894;10.192;2023-07-24T15:00:10;29.30;32.60
40534;DHT22;26233;51.894;10.192;2023-07-24T15:02:41;29.10;32.90
40534;DHT22;26233;51.894;10.192;2023-07-24T15:05:10;28.90;33.30
40534;DHT22;26233;51.894;10.192;2023-07-24T15:07:37;28.50;33.40
40534;DHT22;26233;51.894;10.192;2023-07-24T15:10:05;27.80;33.60
40534;DHT22;26233;51.894;10.192;2023-07-24T15:12:33;27.00;33.20
40534;DHT22;26233;51.894;10.192;2023-07-24T15:15:00;26.00;32.50
40534;DHT22;26233;51.894;10.192;2023-07-24T15:17:27;24.90;32.80
40534;DHT22;26233;51.894;10.192;2023-07-24T15:19:54;23.90;33.50